Time;durP1;ratioP1;P1;durP2;ratioP2;P2;SDS_P1;SDS_P2;PMS_P1;PMS_P2;Temp;Humidity;BMP_temperature;BMP_pressure;BME280_temperature;BME280_humidity;BME280_pressure;Samples;Min_cycle;Max_cycle;Signal;HPM_P1;HPM_P2
2023/04/16 00:02:04;;;;;;;46.00;15.30;;;9.20;99.90;;;;;;5025192;28;20199;-78
2023/04/16 00:04:31;;;;;;;43.43;14.70;;;9.20;99.90;;;;;;5020258;28;20304;-80
2023/04/16 00:07:01;;;;;;;46.97;16.07;;;9.20;99.90;;;;;;5021660;28;20642;-79
2023/04/16 00:09:29;;;;;;;45.57;15.10;;;9.20;99.90;;;;;;5017711;28;20209;-79
2023/04/16 00:11:56;;;;;;;43.20;14.87;;;9.10;99.90;;;;;;5024478;28;20241;-79
2023/04/16 00:14:23;;;;;;;50.40;15.87;;;9.30;99.90;;;;;;5022001;28;20257;-78
2023/04/16 00:16:50;;;;;;;52.20;16.47;;;9.10;99.90;;;;;;5010326;28;20212;-80
2023/04/16 00:19:17;;;;;;;54.13;16.93;;;9.10;99.90;;;;;;5021281;28;20604;-79
2023/04/16 00:21:43;;;;;;;46.77;16.10;;;9.20;99.90;;;;;;5027922;28;20321;-79
2023/04/16 00:24:10;;;;;;;54.27;16.37;;;9.20;99.90;;;;;;5018799;28;20253;-79
2023/04/16 00:26:37;;;;;;;54.47;17.87;;;9.20;99.90;;;;;;5019120;28;20928;-81
2023/04/16 00:29:04;;;;;;;45.23;16.33;;;9.20;99.90;;;;;;5021552;28;20290;-78
2023/04/16 00:31:32;;;;;;;51.77;16.37;;;9.20;99.90;;;;;;5029291;28;20689;-78
2023/04/16 00:33:59;;;;;;;50.30;17.30;;;9.20;99.90;;;;;;5023962;28;20319;-79
2023/04/16 00:36:27;;;;;;;50.00;17.10;;;9.20;99.90;;;;;;5030236;28;20298;-78
2023/04/16 00:38:54;;;;;;;46.97;16.87;;;9.20;99.90;;;;;;5028075;28;20780;-79
2023/04/16 00:41:25;;;;;;;49.63;17.13;;;9.20;99.90;;;;;;5030368;28;20225;-78
2023/04/16 00:43:52;;;;;;;53.07;16.50;;;9.30;99.90;;;;;;5026925;28;20206;-79
2023/04/16 00:46:20;;;;;;;42.97;17.57;;;9.30;99.90;;;;;;5029404;28;20194;-78
2023/04/16 00:48:52;;;;;;;45.23;16.67;;;9.20;99.90;;;;;;5033813;28;20240;-77
2023/04/16 00:51:23;;;;;;;62.43;18.87;;;9.20;99.90;;;;;;5024816;28;20360;-78
2023/04/16 00:53:49;;;;;;;51.10;17.37;;;9.20;99.90;;;;;;5012642;28;20210;-78
2023/04/16 00:56:17;;;;;;;57.93;17.77;;;9.20;99.90;;;;;;5027538;28;20229;-79
2023/04/16 00:58:44;;;;;;;53.37;18.23;;;9.20;99.90;;;;;;5026515;28;20206;-78
2023/04/16 01:01:12;;;;;;;61.10;18.13;;;9.30;99.90;;;;;;5007250;28;20674;-78
2023/04/16 01:03:44;;;;;;;60.47;19.13;;;9.30;99.90;;;;;;5025635;28;20275;-77
2023/04/16 01:06:12;;;;;;;61.23;19.33;;;9.30;99.90;;;;;;5031660;28;20194;-78
2023/04/16 01:08:39;;;;;;;57.43;17.97;;;9.30;99.90;;;;;;5027132;28;20249;-79
2023/04/16 01:11:06;;;;;;;60.70;18.37;;;9.30;99.90;;;;;;5023948;28;20272;-81
2023/04/16 01:13:38;;;;;;;48.70;17.40;;;9.30;99.90;;;;;;5008566;28;20683;-78
2023/04/16 01:16:06;;;;;;;57.73;20.03;;;9.30;99.90;;;;;;5025159;28;20586;-78
2023/04/16 01:18:35;;;;;;;52.73;19.83;;;9.30;99.90;;;;;;5024543;28;20264;-78
2023/04/16 01:21:02;;;;;;;56.60;20.77;;;9.30;99.90;;;;;;5024470;28;20369;-79
2023/04/16 01:23:29;;;;;;;68.67;19.13;;;9.40;99.90;;;;;;5030254;28;20572;-80
2023/04/16 01:25:56;;;;;;;61.63;20.70;;;9.40;99.90;;;;;;5015004;28;20315;-79
2023/04/16 01:28:23;;;;;;;50.93;18.57;;;9.40;99.90;;;;;;5024817;28;20679;-78
2023/04/16 01:30:50;;;;;;;59.17;19.63;;;9.40;99.90;;;;;;5028474;28;20242;-78
2023/04/16 01:33:17;;;;;;;56.23;19.17;;;9.40;99.90;;;;;;5030915;28;20321;-77
2023/04/16 01:35:44;;;;;;;66.07;20.63;;;9.40;99.90;;;;;;5016339;28;20217;-79
2023/04/16 01:38:10;;;;;;;58.23;19.50;;;9.50;99.90;;;;;;5029935;28;20210;-78
2023/04/16 01:40:38;;;;;;;59.57;21.60;;;9.50;99.90;;;;;;5005902;28;20301;-78
2023/04/16 01:43:05;;;;;;;57.57;19.80;;;9.50;99.90;;;;;;5024899;28;20221;-79
2023/04/16 01:45:33;;;;;;;57.47;21.13;;;9.50;99.90;;;;;;5025707;28;20257;-76
2023/04/16 01:48:00;;;;;;;55.87;19.43;;;9.50;99.90;;;;;;5015324;28;20198;-80
2023/04/16 01:50:28;;;;;;;62.10;21.00;;;9.50;99.90;;;;;;5022841;28;20337;-79
2023/04/16 01:52:55;;;;;;;67.27;22.07;;;9.40;99.90;;;;;;5007091;28;20228;-78
2023/04/16 01:55:22;;;;;;;58.73;20.03;;;9.40;99.90;;;;;;5022700;28;20202;-79
2023/04/16 01:57:50;;;;;;;74.87;22.87;;;9.50;99.90;;;;;;5031615;28;20289;-79
2023/04/16 02:00:17;;;;;;;62.47;21.37;;;9.50;99.90;;;;;;5017358;28;20899;-78
2023/04/16 02:02:44;;;;;;;60.20;21.93;;;9.40;99.90;;;;;;5020074;28;20663;-79
2023/04/16 02:05:11;;;;;;;61.70;23.00;;;9.40;99.90;;;;;;5027693;28;20261;-77
2023/04/16 02:07:37;;;;;;;62.77;22.60;;;9.40;99.90;;;;;;5026267;28;20238;-78
2023/04/16 02:10:06;;;;;;;62.00;21.40;;;9.40;99.90;;;;;;5020780;28;20210;-79
2023/04/16 02:12:33;;;;;;;67.03;22.57;;;9.40;99.90;;;;;;5027820;28;20238;-81
2023/04/16 02:15:00;;;;;;;67.80;23.90;;;9.50;99.90;;;;;;5023803;28;20246;-77
2023/04/16 02:17:26;;;;;;;72.77;23.50;;;9.40;99.90;;;;;;5025962;28;20265;-80
2023/04/16 02:19:53;;;;;;;69.27;22.80;;;9.40;99.90;;;;;;5021774;28;20201;-78
2023/04/16 02:22:20;;;;;;;66.00;24.03;;;9.40;99.90;;;;;;5025459;28;20217;-78
2023/04/16 02:24:47;;;;;;;67.90;22.97;;;9.40;99.90;;;;;;5011566;28;20194;-77
2023/04/16 02:27:13;;;;;;;68.00;24.73;;;9.40;99.90;;;;;;5029653;28;20233;-76
2023/04/16 02:29:40;;;;;;;70.00;24.13;;;9.40;99.90;;;;;;5016945;28;20736;-77
2023/04/16 02:32:07;;;;;;;68.63;22.97;;;9.40;99.90;;;;;;5024675;28;20261;-78
2023/04/16 02:34:34;;;;;;;86.83;26.00;;;9.40;99.90;;;;;;5019994;28;20706;-79
2023/04/16 02:37:01;;;;;;;77.73;24.87;;;9.40;99.90;;;;;;5010858;28;20558;-78
2023/04/16 02:39:28;;;;;;;64.00;23.70;;;9.40;99.90;;;;;;4998291;28;20293;-77
2023/04/16 02:41:55;;;;;;;75.83;23.77;;;9.40;99.90;;;;;;5020465;28;20209;-78
2023/04/16 02:44:21;;;;;;;81.87;25.77;;;9.40;99.90;;;;;;5032203;28;20622;-79
2023/04/16 02:46:48;;;;;;;75.83;25.20;;;9.40;99.90;;;;;;5026610;28;20736;-77
2023/04/16 02:49:15;;;;;;;84.23;24.80;;;9.40;99.90;;;;;;5025780;28;20573;-78
2023/04/16 02:51:42;;;;;;;66.37;23.87;;;9.40;99.90;;;;;;5021024;28;20305;-78
2023/04/16 02:54:08;;;;;;;81.80;26.20;;;9.40;99.90;;;;;;5024088;28;20718;-78
2023/04/16 02:56:35;;;;;;;78.70;25.07;;;9.30;99.90;;;;;;5011605;28;20721;-79
2023/04/16 02:59:02;;;;;;;78.73;25.23;;;9.40;99.90;;;;;;5023534;28;20206;-77
2023/04/16 03:01:29;;;;;;;78.37;26.03;;;9.40;99.90;;;;;;5022278;28;20259;-79
2023/04/16 03:03:56;;;;;;;74.33;24.80;;;9.40;99.90;;;;;;5010188;28;20207;-78
2023/04/16 03:06:23;;;;;;;79.47;26.03;;;9.50;99.90;;;;;;5011433;28;20293;-79
2023/04/16 03:08:50;;;;;;;79.10;26.50;;;9.50;99.90;;;;;;5025084;28;20264;-78
2023/04/16 03:11:16;;;;;;;84.07;27.87;;;9.50;99.90;;;;;;5022890;28;20228;-78
2023/04/16 03:13:43;;;;;;;82.37;25.50;;;9.40;99.90;;;;;;5022498;28;20237;-78
2023/04/16 03:16:10;;;;;;;79.60;26.97;;;9.40;99.90;;;;;;5022725;28;20229;-78
2023/04/16 03:18:37;;;;;;;86.87;25.83;;;9.40;99.90;;;;;;5024153;28;20211;-79
2023/04/16 03:21:04;;;;;;;92.40;27.53;;;9.50;99.90;;;;;;5027820;28;20233;-78
2023/04/16 03:23:31;;;;;;;80.63;27.60;;;9.50;99.90;;;;;;5026932;28;20254;-77
2023/04/16 03:25:58;;;;;;;79.70;25.70;;;9.50;99.90;;;;;;5022393;28;20209;-78
2023/04/16 03:28:25;;;;;;;88.20;28.10;;;9.50;99.90;;;;;;5024431;28;20218;-78
2023/04/16 03:30:52;;;;;;;78.20;26.80;;;9.50;99.90;;;;;;5022125;28;20686;-79
2023/04/16 03:33:19;;;;;;;87.80;28.17;;;9.50;99.90;;;;;;5022600;28;20208;-79
2023/04/16 03:35:53;;;;;;;85.97;28.10;;;9.60;99.90;;;;;;5024531;28;20202;-77
2023/04/16 03:38:20;;;;;;;77.23;26.63;;;9.50;99.90;;;;;;5025960;28;20198;-78
2023/04/16 03:40:47;;;;;;;81.53;26.90;;;9.50;99.90;;;;;;5018705;28;20257;-78
2023/04/16 03:43:13;;;;;;;82.53;28.37;;;9.50;99.90;;;;;;5021156;28;20674;-80
2023/04/16 03:45:44;;;;;;;87.53;28.53;;;9.50;99.90;;;;;;5023907;28;20246;-78
2023/04/16 03:48:11;;;;;;;77.37;27.93;;;9.50;99.90;;;;;;5027458;28;20344;-77
2023/04/16 03:50:38;;;;;;;80.00;27.07;;;9.50;99.90;;;;;;5020707;28;20293;-77
2023/04/16 03:53:05;;;;;;;91.60;28.60;;;9.60;99.90;;;;;;5023472;28;20322;-78
2023/04/16 03:55:32;;;;;;;85.00;27.20;;;9.60;99.90;;;;;;5021813;28;20246;-80
2023/04/16 03:58:01;;;;;;;91.17;27.73;;;9.50;99.90;;;;;;5011865;28;20910;-77
2023/04/16 04:00:29;;;;;;;86.57;27.97;;;9.50;99.90;;;;;;5018920;28;20218;-79
2023/04/16 04:02:56;;;;;;;92.73;28.83;;;9.50;99.90;;;;;;5021667;28;20209;-78
2023/04/16 04:05:23;;;;;;;84.90;29.27;;;9.50;99.90;;;;;;5024222;28;20229;-78
2023/04/16 04:07:50;;;;;;;85.43;29.00;;;9.50;99.90;;;;;;5013966;28;20581;-77
2023/04/16 04:10:17;;;;;;;89.60;29.13;;;9.50;99.90;;;;;;5020223;28;20202;-78
2023/04/16 04:12:43;;;;;;;73.77;26.23;;;9.50;99.90;;;;;;5020666;28;20225;-77
2023/04/16 04:15:10;;;;;;;91.07;30.83;;;9.50;99.90;;;;;;5019510;28;20308;-78
2023/04/16 04:17:37;;;;;;;91.67;29.50;;;9.50;99.90;;;;;;5024674;28;20302;-78
2023/04/16 04:20:05;;;;;;;80.83;29.40;;;9.50;99.90;;;;;;5022420;28;20202;-78
2023/04/16 04:22:32;;;;;;;80.97;29.60;;;9.40;99.90;;;;;;5012800;28;20257;-79
2023/04/16 04:24:58;;;;;;;88.10;30.00;;;9.50;99.90;;;;;;5021922;28;20212;-79
2023/04/16 04:27:26;;;;;;;92.07;30.87;;;9.50;99.90;;;;;;5021339;28;20233;-77
2023/04/16 04:29:52;;;;;;;83.27;29.40;;;9.50;99.90;;;;;;5021901;28;20748;-80
2023/04/16 04:32:19;;;;;;;82.10;28.60;;;9.50;99.90;;;;;;5019418;28;20263;-80
2023/04/16 04:34:46;;;;;;;84.50;28.93;;;9.50;99.90;;;;;;5010897;28;20212;-79
2023/04/16 04:37:15;;;;;;;81.20;28.77;;;9.50;99.90;;;;;;5026007;28;20302;-77
2023/04/16 04:39:42;;;;;;;86.33;29.60;;;9.50;99.90;;;;;;5019942;28;20325;-80
2023/04/16 04:42:08;;;;;;;85.47;28.03;;;9.60;99.90;;;;;;5009575;28;20236;-79
2023/04/16 04:44:35;;;;;;;78.00;27.63;;;9.60;99.90;;;;;;5017918;28;20228;-80
2023/04/16 04:47:02;;;;;;;89.33;28.03;;;9.60;99.90;;;;;;5025235;28;20202;-79
2023/04/16 04:49:29;;;;;;;92.77;28.93;;;9.50;99.90;;;;;;5026035;28;20688;-80
2023/04/16 04:51:56;;;;;;;94.27;26.77;;;9.50;99.90;;;;;;5018724;28;20707;-79
2023/04/16 04:54:23;;;;;;;74.93;27.10;;;9.50;99.90;;;;;;5023769;28;20263;-82
2023/04/16 04:56:51;;;;;;;94.63;28.80;;;9.50;99.90;;;;;;5034152;28;21032;-79
2023/04/16 04:59:19;;;;;;;87.53;28.00;;;9.40;99.90;;;;;;5025149;28;20309;-78
2023/04/16 05:01:46;;;;;;;89.20;29.07;;;9.40;99.90;;;;;;5012761;28;20207;-78
2023/04/16 05:04:13;;;;;;;84.83;27.70;;;9.40;99.90;;;;;;5026637;28;20198;-79
2023/04/16 05:06:40;;;;;;;92.30;30.33;;;9.40;99.90;;;;;;5006024;28;20209;-81
2023/04/16 05:09:10;;;;;;;90.13;30.47;;;9.40;99.90;;;;;;5022249;28;20296;-78
2023/04/16 05:11:38;;;;;;;78.43;28.03;;;9.40;99.90;;;;;;5022434;28;20590;-79
2023/04/16 05:14:04;;;;;;;78.43;27.97;;;9.40;99.90;;;;;;5026071;28;20624;-78
2023/04/16 05:16:31;;;;;;;83.97;28.70;;;9.40;99.90;;;;;;5029076;28;20244;-79
2023/04/16 05:18:58;;;;;;;74.80;29.70;;;9.40;99.90;;;;;;5029001;28;20299;-78
2023/04/16 05:21:25;;;;;;;80.90;27.87;;;9.40;99.90;;;;;;5026900;28;20284;-78
2023/04/16 05:23:52;;;;;;;76.93;27.47;;;9.40;99.90;;;;;;5027337;28;20209;-78
2023/04/16 05:26:19;;;;;;;74.60;29.60;;;9.40;99.90;;;;;;5025875;28;20204;-78
2023/04/16 05:28:46;;;;;;;76.30;28.13;;;9.50;99.90;;;;;;5025535;28;20264;-79
2023/04/16 05:31:12;;;;;;;85.73;30.27;;;9.50;99.90;;;;;;5027233;28;20309;-78
2023/04/16 05:33:39;;;;;;;82.47;29.90;;;9.50;99.90;;;;;;5027680;28;20304;-80
2023/04/16 05:36:06;;;;;;;87.60;30.97;;;9.50;99.90;;;;;;5025357;28;20693;-79
2023/04/16 05:38:33;;;;;;;73.37;28.43;;;9.50;99.90;;;;;;5024119;28;20674;-79
2023/04/16 05:40:59;;;;;;;81.77;28.77;;;9.50;99.90;;;;;;5029798;28;20285;-79
2023/04/16 05:43:26;;;;;;;74.93;28.17;;;9.50;99.90;;;;;;5033328;28;20565;-79
2023/04/16 05:45:53;;;;;;;82.67;28.90;;;9.50;99.90;;;;;;5024642;28;20581;-79
2023/04/16 05:48:20;;;;;;;76.47;27.73;;;9.50;99.90;;;;;;5006116;28;20209;-80
2023/04/16 05:50:47;;;;;;;83.53;29.43;;;9.50;99.90;;;;;;5028830;28;20190;-80
2023/04/16 05:53:15;;;;;;;81.77;30.37;;;9.50;99.90;;;;;;5014454;28;20260;-80
2023/04/16 05:55:41;;;;;;;81.97;27.80;;;9.50;99.90;;;;;;5028028;28;20297;-80
2023/04/16 05:58:09;;;;;;;81.37;29.83;;;9.50;99.90;;;;;;5024661;28;20732;-79
2023/04/16 06:00:35;;;;;;;87.13;28.77;;;9.50;99.90;;;;;;5024731;28;20309;-79
2023/04/16 06:03:02;;;;;;;85.37;29.77;;;9.60;99.90;;;;;;5024705;28;20604;-80
2023/04/16 06:05:29;;;;;;;77.50;27.87;;;9.60;99.90;;;;;;5026323;28;20222;-79
2023/04/16 06:07:56;;;;;;;91.07;28.90;;;9.70;99.90;;;;;;5021589;28;21043;-81
2023/04/16 06:10:23;;;;;;;81.90;29.17;;;9.70;99.90;;;;;;5014224;28;20285;-79
2023/04/16 06:12:50;;;;;;;81.23;29.40;;;9.70;99.90;;;;;;5015217;28;20320;-80
2023/04/16 06:15:16;;;;;;;83.47;27.27;;;9.70;99.90;;;;;;5030582;28;20302;-80
2023/04/16 06:17:43;;;;;;;85.60;29.73;;;9.80;99.90;;;;;;5023117;28;20206;-79
2023/04/16 06:20:11;;;;;;;85.33;29.97;;;9.70;99.90;;;;;;5015512;28;20226;-80
2023/04/16 06:22:38;;;;;;;78.17;29.50;;;9.70;99.90;;;;;;5026507;28;20198;-78
2023/04/16 06:25:05;;;;;;;77.30;28.30;;;9.70;99.90;;;;;;5003409;28;20294;-78
2023/04/16 06:27:32;;;;;;;85.07;28.37;;;9.70;99.90;;;;;;5022520;28;20212;-79
2023/04/16 06:29:58;;;;;;;81.50;28.03;;;9.80;99.90;;;;;;5023409;28;20223;-80
2023/04/16 06:32:25;;;;;;;78.17;29.10;;;9.80;99.90;;;;;;5002762;28;20257;-79
2023/04/16 06:34:52;;;;;;;90.87;28.80;;;9.80;99.90;;;;;;5023885;28;20210;-79
2023/04/16 06:37:21;;;;;;;79.57;29.23;;;9.80;99.90;;;;;;4993328;28;20208;-80
2023/04/16 06:39:48;;;;;;;87.40;29.87;;;9.80;99.90;;;;;;5023700;28;20232;-78
2023/04/16 06:42:15;;;;;;;84.20;28.23;;;9.80;99.90;;;;;;5008758;28;20666;-80
2023/04/16 06:44:42;;;;;;;79.77;28.77;;;9.80;99.90;;;;;;5030847;28;20223;-79
2023/04/16 06:47:11;;;;;;;81.27;28.37;;;9.90;99.90;;;;;;5028452;28;20667;-80
2023/04/16 06:49:38;;;;;;;86.33;28.47;;;9.90;99.90;;;;;;5041352;28;20598;-80
2023/04/16 06:52:05;;;;;;;96.90;29.77;;;9.90;99.90;;;;;;5024006;28;20643;-79
2023/04/16 06:54:32;;;;;;;90.07;29.37;;;9.90;99.90;;;;;;5012039;28;20202;-80
2023/04/16 06:56:59;;;;;;;86.17;28.97;;;9.90;99.90;;;;;;5025522;28;20207;-81
2023/04/16 06:59:26;;;;;;;81.53;27.73;;;10.00;99.90;;;;;;5032550;28;20258;-78
2023/04/16 07:01:52;;;;;;;83.20;29.27;;;10.10;99.90;;;;;;5024186;28;20594;-78
2023/04/16 07:04:20;;;;;;;81.83;28.63;;;10.10;99.90;;;;;;5028963;28;20579;-79
2023/04/16 07:06:47;;;;;;;83.37;27.73;;;10.10;99.90;;;;;;5011171;28;20237;-79
2023/04/16 07:09:14;;;;;;;79.30;28.60;;;10.10;99.90;;;;;;5026458;28;20744;-81
2023/04/16 07:11:43;;;;;;;76.87;27.43;;;10.20;99.90;;;;;;5025204;28;20355;-81
2023/04/16 07:14:09;;;;;;;76.37;29.50;;;10.10;99.90;;;;;;5031430;28;20219;-80
2023/04/16 07:16:36;;;;;;;79.37;28.83;;;10.10;99.90;;;;;;5030502;28;20253;-79
2023/04/16 07:19:03;;;;;;;73.33;28.50;;;10.20;99.90;;;;;;5025698;28;20557;-80
2023/04/16 07:21:30;;;;;;;78.00;30.13;;;10.20;99.90;;;;;;5020513;28;20275;-80
2023/04/16 07:23:57;;;;;;;74.70;29.60;;;10.20;99.90;;;;;;5022737;28;20203;-79
2023/04/16 07:26:24;;;;;;;81.70;30.37;;;10.20;99.90;;;;;;5019061;28;20222;-80
2023/04/16 07:28:53;;;;;;;77.57;29.53;;;10.20;99.90;;;;;;5024933;28;20239;-81
2023/04/16 07:31:20;;;;;;;76.23;29.23;;;10.30;99.90;;;;;;5031511;28;20219;-79
2023/04/16 07:33:47;;;;;;;72.67;28.37;;;10.30;99.90;;;;;;5026815;28;20235;-80
2023/04/16 07:36:14;;;;;;;79.27;28.43;;;10.30;99.90;;;;;;5024692;28;20250;-80
2023/04/16 07:38:40;;;;;;;75.97;30.30;;;10.30;99.90;;;;;;5023064;28;20206;-80
2023/04/16 07:41:07;;;;;;;80.77;30.00;;;10.40;99.90;;;;;;5009747;28;20284;-80
2023/04/16 07:43:34;;;;;;;87.43;30.43;;;10.40;99.90;;;;;;5010283;28;20204;-80
2023/04/16 07:46:01;;;;;;;80.73;28.97;;;10.40;99.90;;;;;;5027684;28;20235;-82
2023/04/16 07:48:28;;;;;;;77.67;28.57;;;10.50;99.90;;;;;;5024605;28;20196;-81
2023/04/16 07:50:55;;;;;;;74.97;30.70;;;10.50;99.90;;;;;;5020817;28;20609;-81
2023/04/16 07:53:22;;;;;;;79.70;28.63;;;10.50;99.90;;;;;;5019744;28;20248;-80
2023/04/16 07:55:48;;;;;;;84.03;30.70;;;10.50;99.90;;;;;;5020239;28;20763;-79
2023/04/16 07:58:15;;;;;;;88.27;30.60;;;10.50;99.90;;;;;;5027138;28;20215;-80
2023/04/16 08:00:45;;;;;;;89.00;30.23;;;10.50;99.90;;;;;;5021517;28;20247;-80
2023/04/16 08:03:12;;;;;;;89.50;32.20;;;10.60;99.90;;;;;;5021613;28;20303;-80
2023/04/16 08:05:39;;;;;;;88.53;33.07;;;10.60;99.90;;;;;;5001851;28;20206;-80
2023/04/16 08:08:05;;;;;;;89.17;31.13;;;10.70;99.90;;;;;;5018762;28;20649;-80
2023/04/16 08:10:32;;;;;;;73.20;27.77;;;10.60;99.90;;;;;;5018860;28;20227;-80
2023/04/16 08:13:00;;;;;;;82.27;31.00;;;10.70;99.90;;;;;;5025294;28;20634;-82
2023/04/16 08:15:27;;;;;;;86.27;31.00;;;10.70;99.90;;;;;;5019278;28;20567;-81
2023/04/16 08:17:54;;;;;;;72.27;29.33;;;10.70;99.90;;;;;;5020684;28;20225;-79
2023/04/16 08:20:21;;;;;;;73.50;28.30;;;10.80;99.90;;;;;;5024802;28;20247;-80
2023/04/16 08:22:54;;;;;;;80.70;30.67;;;10.80;99.90;;;;;;5021629;28;20574;-80
2023/04/16 08:25:25;;;;;;;76.73;29.97;;;10.90;99.90;;;;;;5021754;28;20236;-80
2023/04/16 08:27:53;;;;;;;68.60;29.47;;;11.00;99.90;;;;;;5017786;28;20289;-79
2023/04/16 08:30:20;;;;;;;72.67;29.77;;;11.20;99.90;;;;;;5021935;28;20226;-80
2023/04/16 08:32:47;;;;;;;75.50;29.43;;;11.10;99.90;;;;;;5020983;28;20221;-81
2023/04/16 08:35:16;;;;;;;71.97;29.33;;;11.20;99.90;;;;;;5004444;28;20219;-82
2023/04/16 08:37:43;;;;;;;72.20;29.17;;;11.20;99.90;;;;;;5019893;28;20202;-80
2023/04/16 08:40:10;;;;;;;69.00;29.00;;;11.40;99.90;;;;;;5026923;28;20294;-82
2023/04/16 08:42:51;;;;;;;69.10;29.00;;;11.40;99.90;;;;;;5032177;28;20225;-81
2023/04/16 08:45:22;;;;;;;63.87;26.27;;;11.50;99.90;;;;;;5028946;28;20288;-87
2023/04/16 08:47:52;;;;;;;63.83;27.10;;;11.60;99.90;;;;;;5002007;28;20689;-83
2023/04/16 08:50:24;;;;;;;66.67;27.07;;;11.60;99.90;;;;;;5005052;28;20214;-79
2023/04/16 08:53:05;;;;;;;64.63;27.27;;;11.60;99.90;;;;;;5008324;28;20372;-80
2023/04/16 08:55:37;;;;;;;51.27;25.97;;;11.70;99.90;;;;;;5025742;28;20198;-80
2023/04/16 08:58:10;;;;;;;62.70;27.47;;;11.90;99.90;;;;;;5025281;28;20194;-81
2023/04/16 09:00:39;;;;;;;58.00;26.17;;;12.10;99.90;;;;;;5027606;28;20330;-80
2023/04/16 09:03:08;;;;;;;55.93;25.47;;;12.20;99.90;;;;;;5033319;28;20261;-80
2023/04/16 09:05:36;;;;;;;62.60;27.50;;;12.40;99.90;;;;;;5035718;28;20259;-80
2023/04/16 09:08:05;;;;;;;55.43;24.73;;;12.50;99.90;;;;;;5031371;28;20723;-80
2023/04/16 09:10:32;;;;;;;52.67;23.60;;;12.60;99.90;;;;;;5033857;28;20281;-81
2023/04/16 09:13:00;;;;;;;55.17;25.37;;;12.80;99.90;;;;;;5029681;28;20711;-80
2023/04/16 09:15:28;;;;;;;58.20;24.13;;;12.90;99.90;;;;;;5015572;28;20748;-80
2023/04/16 09:17:58;;;;;;;54.63;25.33;;;12.90;99.90;;;;;;5032547;28;20218;-80
2023/04/16 09:20:25;;;;;;;55.20;26.33;;;13.00;99.90;;;;;;5019280;28;20225;-79
2023/04/16 09:22:52;;;;;;;49.43;22.93;;;13.10;99.90;;;;;;5041379;28;20237;-84
2023/04/16 09:25:20;;;;;;;54.63;24.47;;;13.30;99.90;;;;;;5047207;28;20198;-80
2023/04/16 09:27:50;;;;;;;53.43;24.20;;;13.50;99.90;;;;;;5024318;28;20249;-80
2023/04/16 09:30:20;;;;;;;44.77;22.90;;;13.60;99.90;;;;;;5036421;28;20221;-81
2023/04/16 09:32:48;;;;;;;45.93;22.70;;;13.70;99.90;;;;;;5032607;28;20771;-80
2023/04/16 09:35:20;;;;;;;46.17;23.00;;;13.80;99.90;;;;;;5015006;28;20201;-80
2023/04/16 09:37:57;;;;;;;45.80;21.57;;;14.10;99.90;;;;;;5029268;28;20252;-79
2023/04/16 09:40:25;;;;;;;49.80;22.90;;;14.20;99.90;;;;;;5027720;28;20197;-79
2023/04/16 09:42:59;;;;;;;46.50;22.47;;;14.40;99.90;;;;;;5012582;28;20297;-81
2023/04/16 09:45:31;;;;;;;37.30;20.73;;;14.40;99.90;;;;;;5009746;28;20214;-81
2023/04/16 09:48:03;;;;;;;41.97;22.30;;;14.40;99.90;;;;;;5035573;28;20202;-80
2023/04/16 09:50:30;;;;;;;41.83;21.47;;;14.40;99.90;;;;;;5024176;28;20206;-82
2023/04/16 09:53:01;;;;;;;46.90;22.77;;;14.40;99.90;;;;;;5022518;28;20353;-78
2023/04/16 09:55:28;;;;;;;41.23;20.87;;;14.60;99.90;;;;;;5023806;28;20212;-80
2023/04/16 09:58:01;;;;;;;40.53;20.93;;;14.60;99.90;;;;;;5020406;28;20259;-80
2023/04/16 10:00:29;;;;;;;37.60;19.40;;;14.60;99.90;;;;;;5025017;28;20253;-80
2023/04/16 10:03:04;;;;;;;40.83;20.05;;;14.80;99.90;;;;;;5031003;28;20296;-83
2023/04/16 10:05:31;;;;;;;35.47;19.52;;;15.00;99.90;;;;;;5022610;28;20202;-84
2023/04/16 10:08:00;;;;;;;39.97;21.00;;;15.20;99.90;;;;;;5003676;28;20658;-80
2023/04/16 10:10:28;;;;;;;38.35;18.75;;;15.30;99.90;;;;;;5020880;28;20213;-81
2023/04/16 10:12:55;;;;;;;38.28;19.42;;;15.50;99.90;;;;;;5025319;28;20316;-81
2023/04/16 10:15:22;;;;;;;43.20;20.08;;;15.40;99.90;;;;;;5026016;28;20218;-84
2023/04/16 10:17:50;;;;;;;39.22;19.50;;;15.20;99.90;;;;;;5004034;28;20686;-81
2023/04/16 10:20:17;;;;;;;44.67;21.25;;;15.20;99.90;;;;;;5022459;28;20234;-80
2023/04/16 10:22:45;;;;;;;34.90;19.70;;;15.40;99.90;;;;;;5024014;28;20198;-79
2023/04/16 10:25:12;;;;;;;38.05;20.30;;;15.60;99.90;;;;;;5020107;28;20237;-77
2023/04/16 10:27:40;;;;;;;45.25;20.75;;;15.60;99.90;;;;;;5022637;28;20269;-80
2023/04/16 10:30:08;;;;;;;38.65;19.75;;;15.70;99.90;;;;;;5027339;28;20222;-79
2023/04/16 10:32:36;;;;;;;34.97;19.65;;;15.80;99.90;;;;;;5020890;28;20199;-78
2023/04/16 10:35:04;;;;;;;34.33;18.25;;;15.80;99.90;;;;;;5020103;28;20206;-79
2023/04/16 10:37:31;;;;;;;35.30;19.52;;;15.80;99.90;;;;;;5025640;28;20202;-79
2023/04/16 10:40:00;;;;;;;37.08;19.77;;;15.80;99.90;;;;;;5006172;28;20658;-80
2023/04/16 10:42:27;;;;;;;34.85;18.05;;;15.60;99.90;;;;;;5026619;28;20618;-85
2023/04/16 10:45:03;;;;;;;34.70;18.90;;;15.50;99.90;;;;;;5004306;28;20310;-80
2023/04/16 10:47:30;;;;;;;41.53;19.98;;;15.40;99.90;;;;;;5025742;28;20300;-81
2023/04/16 10:49:57;;;;;;;34.95;18.63;;;15.40;99.90;;;;;;5021492;28;20205;-82
2023/04/16 10:52:28;;;;;;;38.85;19.90;;;15.40;99.90;;;;;;5010019;28;20250;-80
2023/04/16 10:54:59;;;;;;;36.30;18.92;;;15.30;99.90;;;;;;5009945;28;20309;-81
2023/04/16 10:57:28;;;;;;;38.03;19.45;;;15.30;99.90;;;;;;5010804;28;20685;-80
2023/04/16 10:59:58;;;;;;;39.65;19.40;;;15.20;99.90;;;;;;5021765;28;20223;-81
2023/04/16 11:02:28;;;;;;;37.08;19.40;;;15.30;99.90;;;;;;5019254;28;20207;-81
2023/04/16 11:04:57;;;;;;;33.75;18.38;;;15.30;99.90;;;;;;5021839;28;20210;-82
2023/04/16 11:07:38;;;;;;;35.33;18.65;;;15.30;99.90;;;;;;5021383;28;20285;-81
2023/04/16 11:10:06;;;;;;;37.88;19.70;;;15.40;99.90;;;;;;5026786;28;20205;-80
2023/04/16 11:12:45;;;;;;;37.13;18.98;;;15.50;99.90;;;;;;5019412;28;20558;-80
2023/04/16 11:15:14;;;;;;;41.85;19.15;;;15.70;99.90;;;;;;5022000;28;20259;-82
2023/04/16 11:17:43;;;;;;;39.28;19.23;;;15.80;99.90;;;;;;5028720;28;20571;-79
2023/04/16 11:20:22;;;;;;;37.28;18.92;;;15.90;99.90;;;;;;5022389;28;20206;-82
2023/04/16 11:22:54;;;;;;;35.83;18.20;;;15.90;99.90;;;;;;5022553;28;20210;-81
2023/04/16 11:25:30;;;;;;;35.30;17.45;;;16.00;99.90;;;;;;5020679;28;20210;-81
2023/04/16 11:27:57;;;;;;;36.67;18.48;;;16.00;99.90;;;;;;5001861;28;20770;-81
2023/04/16 11:30:43;;;;;;;36.40;17.00;;;15.70;99.90;;;;;;5010292;28;20224;-81
2023/04/16 11:33:16;;;;;;;31.45;17.75;;;15.60;99.90;;;;;;5032106;28;20217;-80
2023/04/16 11:35:44;;;;;;;35.03;19.60;;;15.60;99.90;;;;;;5012897;28;20308;-81
2023/04/16 11:38:11;;;;;;;35.03;17.73;;;15.60;99.90;;;;;;5021077;28;20207;-80
2023/04/16 11:40:41;;;;;;;36.38;17.48;;;15.80;99.90;;;;;;5025997;28;20198;-81
2023/04/16 11:43:15;;;;;;;39.08;18.48;;;15.80;99.90;;;;;;5020649;28;20293;-81
2023/04/16 11:46:05;;;;;;;36.28;17.90;;;15.90;99.90;;;;;;5022356;28;20221;-80
2023/04/16 11:48:56;;;;;;;37.45;17.80;;;16.00;99.90;;;;;;5025644;28;20612;-81
2023/04/16 11:51:23;;;;;;;33.33;17.98;;;16.10;99.90;;;;;;5004785;28;20269;-79
2023/04/16 11:53:52;;;;;;;32.35;17.63;;;16.10;99.90;;;;;;5024075;28;20229;-81
2023/04/16 11:56:30;;;;;;;35.35;17.45;;;16.10;99.90;;;;;;5022556;28;20206;-80
2023/04/16 11:59:21;;;;;;;29.58;17.48;;;16.20;99.90;;;;;;5013980;28;20654;-82
2023/04/16 12:01:50;;;;;;;33.85;17.13;;;16.30;99.90;;;;;;5018990;28;20213;-80
2023/04/16 12:04:21;;;;;;;35.55;17.55;;;16.30;99.90;;;;;;5026539;28;20228;-80
2023/04/16 12:07:11;;;;;;;30.10;18.10;;;16.30;99.90;;;;;;5017755;28;20534;-79
2023/04/16 12:09:41;;;;;;;37.40;18.00;;;16.40;99.90;;;;;;5026719;28;20206;-79
2023/04/16 12:12:29;;;;;;;39.80;18.13;;;16.30;99.90;;;;;;5010363;28;20284;-82
2023/04/16 12:15:02;;;;;;;32.15;17.83;;;16.20;99.90;;;;;;5021417;28;20222;-81
2023/04/16 12:17:34;;;;;;;42.53;18.67;;;16.20;99.90;;;;;;5021416;28;20260;-82
2023/04/16 12:20:09;;;;;;;37.30;18.58;;;16.30;99.90;;;;;;5025611;28;20206;-81
2023/04/16 12:22:38;;;;;;;35.03;17.60;;;16.30;99.90;;;;;;5024168;28;20198;-80
2023/04/16 12:25:14;;;;;;;31.75;16.95;;;16.30;99.90;;;;;;5025058;28;20209;-79
2023/04/16 12:27:54;;;;;;;35.17;17.27;;;16.30;99.90;;;;;;5003384;28;20289;-79
2023/04/16 12:30:22;;;;;;;27.42;16.60;;;16.20;99.90;;;;;;5006219;28;20222;-80
2023/04/16 12:32:52;;;;;;;30.90;16.30;;;16.30;99.90;;;;;;5026203;28;20209;-82
2023/04/16 12:35:32;;;;;;;45.85;18.60;;;16.30;99.90;;;;;;5026523;28;20942;-80
2023/04/16 12:38:00;;;;;;;28.38;16.50;;;16.40;99.90;;;;;;5026748;28;20712;-80
2023/04/16 12:40:30;;;;;;;30.85;18.00;;;16.40;99.90;;;;;;5031982;28;20205;-83